sensor_id;sensor_type;location;lat;lon;timestamp;pressure;altitude;pressure_sealevel;temperature;humidity
12209;BME280;6167;43.080;25.634;2022-11-25T00:01:23;99330.13;;;7.70;100.00
12209;BME280;6167;43.080;25.634;2022-11-25T00:03:51;99338.88;;;7.70;100.00
12209;BME280;6167;43.080;25.634;2022-11-25T00:06:20;99338.00;;;7.70;100.00
12209;BME280;6167;43.080;25.634;2022-11-25T00:08:49;99330.44;;;7.85;100.00
12209;BME280;6167;43.080;25.634;2022-11-25T00:11:17;99342.78;;;8.07;100.00
12209;BME280;6167;43.080;25.634;2022-11-25T00:13:46;99331.91;;;7.92;100.00
12209;BME280;6167;43.080;25.634;2022-11-25T00:16:17;99323.50;;;7.83;100.00
12209;BME280;6167;43.080;25.634;2022-11-25T00:18:44;99344.84;;;7.75;100.00
12209;BME280;6167;43.080;25.634;2022-11-25T00:21:16;99332.59;;;7.74;100.00
12209;BME280;6167;43.080;25.634;2022-11-25T00:23:43;99341.19;;;7.79;100.00
12209;BME280;6167;43.080;25.634;2022-11-25T00:26:11;99330.66;;;8.03;100.00
12209;BME280;6167;43.080;25.634;2022-11-25T00:28:40;99338.06;;;8.15;100.00
12209;BME280;6167;43.080;25.634;2022-11-25T00:31:08;99335.09;;;8.01;100.00
12209;BME280;6167;43.080;25.634;2022-11-25T00:33:38;99336.94;;;7.99;100.00
12209;BME280;6167;43.080;25.634;2022-11-25T00:36:07;99338.94;;;7.92;100.00
12209;BME280;6167;43.080;25.634;2022-11-25T00:38:38;99335.91;;;8.03;100.00
12209;BME280;6167;43.080;25.634;2022-11-25T00:41:05;99341.22;;;8.24;100.00
12209;BME280;6167;43.080;25.634;2022-11-25T00:43:49;99340.53;;;8.19;100.00
12209;BME280;6167;43.080;25.634;2022-11-25T00:46:33;99346.75;;;8.17;100.00
12209;BME280;6167;43.080;25.634;2022-11-25T00:49:02;99333.38;;;8.00;100.00
12209;BME280;6167;43.080;25.634;2022-11-25T00:51:28;99339.28;;;8.06;100.00
12209;BME280;6167;43.080;25.634;2022-11-25T00:53:55;99342.31;;;8.19;100.00
12209;BME280;6167;43.080;25.634;2022-11-25T00:56:22;99334.84;;;8.30;100.00
12209;BME280;6167;43.080;25.634;2022-11-25T00:58:49;99331.06;;;8.14;100.00
12209;BME280;6167;43.080;25.634;2022-11-25T01:01:18;99335.06;;;8.02;100.00
12209;BME280;6167;43.080;25.634;2022-11-25T01:03:47;99350.63;;;8.08;100.00
12209;BME280;6167;43.080;25.634;2022-11-25T01:06:16;99336.34;;;7.90;100.00
12209;BME280;6167;43.080;25.634;2022-11-25T01:08:43;99339.25;;;8.08;100.00
12209;BME280;6167;43.080;25.634;2022-11-25T01:11:14;99346.47;;;8.24;100.00
12209;BME280;6167;43.080;25.634;2022-11-25T01:13:42;99348.44;;;8.19;100.00
12209;BME280;6167;43.080;25.634;2022-11-25T01:16:11;99348.66;;;8.13;100.00
12209;BME280;6167;43.080;25.634;2022-11-25T01:18:38;99353.88;;;8.15;100.00
12209;BME280;6167;43.080;25.634;2022-11-25T01:21:05;99340.44;;;7.99;100.00
12209;BME280;6167;43.080;25.634;2022-11-25T01:23:34;99357.53;;;8.11;100.00
12209;BME280;6167;43.080;25.634;2022-11-25T01:26:02;99363.66;;;8.35;100.00
12209;BME280;6167;43.080;25.634;2022-11-25T01:28:29;99361.19;;;8.30;100.00
12209;BME280;6167;43.080;25.634;2022-11-25T01:31:00;99359.53;;;8.27;100.00
12209;BME280;6167;43.080;25.634;2022-11-25T01:33:28;99366.06;;;8.17;100.00
12209;BME280;6167;43.080;25.634;2022-11-25T01:35:59;99367.34;;;8.07;100.00
12209;BME280;6167;43.080;25.634;2022-11-25T01:38:29;99350.63;;;8.08;100.00
12209;BME280;6167;43.080;25.634;2022-11-25T01:40:58;99362.69;;;8.37;100.00
12209;BME280;6167;43.080;25.634;2022-11-25T01:43:26;99370.59;;;8.37;100.00
12209;BME280;6167;43.080;25.634;2022-11-25T01:45:56;99364.13;;;8.22;100.00
12209;BME280;6167;43.080;25.634;2022-11-25T01:48:30;99360.97;;;8.13;100.00
12209;BME280;6167;43.080;25.634;2022-11-25T01:50:58;99361.59;;;8.19;100.00
12209;BME280;6167;43.080;25.634;2022-11-25T01:53:25;99372.38;;;8.37;100.00
12209;BME280;6167;43.080;25.634;2022-11-25T01:55:56;99372.47;;;8.34;100.00
12209;BME280;6167;43.080;25.634;2022-11-25T01:58:29;99373.84;;;8.20;100.00
12209;BME280;6167;43.080;25.634;2022-11-25T02:00:57;99377.13;;;8.27;100.00
12209;BME280;6167;43.080;25.634;2022-11-25T02:03:28;99370.56;;;8.14;100.00
12209;BME280;6167;43.080;25.634;2022-11-25T02:06:03;99383.28;;;8.26;100.00
12209;BME280;6167;43.080;25.634;2022-11-25T02:08:33;99370.88;;;8.30;100.00
12209;BME280;6167;43.080;25.634;2022-11-25T02:11:00;99388.56;;;8.26;100.00
12209;BME280;6167;43.080;25.634;2022-11-25T02:13:31;99367.28;;;8.09;100.00
12209;BME280;6167;43.080;25.634;2022-11-25T02:15:58;99391.19;;;8.26;100.00
12209;BME280;6167;43.080;25.634;2022-11-25T02:18:25;99383.53;;;8.65;100.00
12209;BME280;6167;43.080;25.634;2022-11-25T02:20:52;99385.59;;;8.57;100.00
12209;BME280;6167;43.080;25.634;2022-11-25T02:23:26;99390.91;;;8.34;100.00
12209;BME280;6167;43.080;25.634;2022-11-25T02:25:57;99400.94;;;8.24;100.00
12209;BME280;6167;43.080;25.634;2022-11-25T02:28:26;99380.84;;;7.98;100.00
12209;BME280;6167;43.080;25.634;2022-11-25T02:30:53;99399.00;;;8.06;100.00
12209;BME280;6167;43.080;25.634;2022-11-25T02:33:20;99396.84;;;8.15;100.00
12209;BME280;6167;43.080;25.634;2022-11-25T02:35:55;99385.81;;;8.29;100.00
12209;BME280;6167;43.080;25.634;2022-11-25T02:38:24;99390.22;;;8.28;100.00
12209;BME280;6167;43.080;25.634;2022-11-25T02:40:54;99388.16;;;8.13;100.00
12209;BME280;6167;43.080;25.634;2022-11-25T02:43:24;99395.56;;;8.04;100.00
12209;BME280;6167;43.080;25.634;2022-11-25T02:45:57;99392.91;;;8.04;100.00
12209;BME280;6167;43.080;25.634;2022-11-25T02:48:25;99387.50;;;8.08;100.00
12209;BME280;6167;43.080;25.634;2022-11-25T02:50:52;99388.03;;;8.16;100.00
12209;BME280;6167;43.080;25.634;2022-11-25T02:53:19;99388.69;;;8.23;100.00
12209;BME280;6167;43.080;25.634;2022-11-25T02:55:46;99392.06;;;8.03;100.00
12209;BME280;6167;43.080;25.634;2022-11-25T02:58:13;99390.88;;;7.88;100.00
12209;BME280;6167;43.080;25.634;2022-11-25T03:00:44;99383.47;;;7.98;100.00
12209;BME280;6167;43.080;25.634;2022-11-25T03:03:11;99386.38;;;8.14;100.00
12209;BME280;6167;43.080;25.634;2022-11-25T03:05:38;99394.75;;;8.25;100.00
12209;BME280;6167;43.080;25.634;2022-11-25T03:08:07;99403.94;;;8.13;100.00
12209;BME280;6167;43.080;25.634;2022-11-25T03:10:35;99407.75;;;8.06;100.00
12209;BME280;6167;43.080;25.634;2022-11-25T03:13:02;99409.63;;;8.03;100.00
12209;BME280;6167;43.080;25.634;2022-11-25T03:15:29;99396.69;;;7.97;100.00
12209;BME280;6167;43.080;25.634;2022-11-25T03:17:58;99412.81;;;8.11;100.00
12209;BME280;6167;43.080;25.634;2022-11-25T03:20:24;99405.28;;;8.25;100.00
12209;BME280;6167;43.080;25.634;2022-11-25T03:23:22;99406.38;;;8.19;100.00
12209;BME280;6167;43.080;25.634;2022-11-25T03:25:49;99408.66;;;8.05;100.00
12209;BME280;6167;43.080;25.634;2022-11-25T03:28:16;99399.16;;;8.01;100.00
12209;BME280;6167;43.080;25.634;2022-11-25T03:30:43;99411.06;;;8.11;100.00
12209;BME280;6167;43.080;25.634;2022-11-25T03:33:11;99411.31;;;8.28;100.00
12209;BME280;6167;43.080;25.634;2022-11-25T03:35:38;99421.41;;;8.16;100.00
12209;BME280;6167;43.080;25.634;2022-11-25T03:38:05;99413.81;;;8.08;100.00
12209;BME280;6167;43.080;25.634;2022-11-25T03:40:32;99418.44;;;8.02;100.00
12209;BME280;6167;43.080;25.634;2022-11-25T03:42:59;99406.25;;;7.99;100.00
12209;BME280;6167;43.080;25.634;2022-11-25T03:45:25;99420.06;;;8.06;100.00
12209;BME280;6167;43.080;25.634;2022-11-25T03:47:52;99417.44;;;8.29;100.00
12209;BME280;6167;43.080;25.634;2022-11-25T03:50:21;99390.66;;;7.93;100.00
12209;BME280;6167;43.080;25.634;2022-11-25T03:52:47;99416.50;;;8.07;100.00
12209;BME280;6167;43.080;25.634;2022-11-25T03:55:14;99431.66;;;8.00;100.00
12209;BME280;6167;43.080;25.634;2022-11-25T03:57:41;99428.56;;;8.12;100.00
12209;BME280;6167;43.080;25.634;2022-11-25T04:00:09;99426.69;;;8.16;100.00
12209;BME280;6167;43.080;25.634;2022-11-25T04:02:36;99416.50;;;8.07;100.00
12209;BME280;6167;43.080;25.634;2022-11-25T04:05:03;99423.00;;;7.97;100.00
12209;BME280;6167;43.080;25.634;2022-11-25T04:07:32;99413.09;;;7.80;100.00
12209;BME280;6167;43.080;25.634;2022-11-25T04:09:59;99397.41;;;7.77;100.00
12209;BME280;6167;43.080;25.634;2022-11-25T04:12:26;99440.31;;;8.04;100.00
12209;BME280;6167;43.080;25.634;2022-11-25T04:15:10;99429.84;;;8.02;100.00
12209;BME280;6167;43.080;25.634;2022-11-25T04:17:36;99435.38;;;7.94;100.00
12209;BME280;6167;43.080;25.634;2022-11-25T04:20:04;99437.34;;;7.89;100.00
12209;BME280;6167;43.080;25.634;2022-11-25T04:22:33;99432.19;;;7.86;100.00
12209;BME280;6167;43.080;25.634;2022-11-25T04:25:00;99436.06;;;8.00;100.00
12209;BME280;6167;43.080;25.634;2022-11-25T04:27:26;99440.25;;;8.05;100.00
12209;BME280;6167;43.080;25.634;2022-11-25T04:29:53;99441.38;;;7.98;100.00
12209;BME280;6167;43.080;25.634;2022-11-25T04:32:20;99446.59;;;8.00;100.00
12209;BME280;6167;43.080;25.634;2022-11-25T04:34:47;99435.94;;;7.79;100.00
12209;BME280;6167;43.080;25.634;2022-11-25T04:37:14;99442.72;;;7.86;100.00
12209;BME280;6167;43.080;25.634;2022-11-25T04:39:42;99444.81;;;8.00;100.00
12209;BME280;6167;43.080;25.634;2022-11-25T04:42:09;99444.28;;;7.90;100.00
12209;BME280;6167;43.080;25.634;2022-11-25T04:44:53;99461.19;;;7.85;100.00
12209;BME280;6167;43.080;25.634;2022-11-25T04:47:20;99469.34;;;7.77;100.00
12209;BME280;6167;43.080;25.634;2022-11-25T04:49:47;99453.88;;;7.68;100.00
12209;BME280;6167;43.080;25.634;2022-11-25T04:52:14;99463.97;;;7.80;100.00
12209;BME280;6167;43.080;25.634;2022-11-25T04:54:42;99451.28;;;7.91;100.00
12209;BME280;6167;43.080;25.634;2022-11-25T04:57:11;99442.72;;;7.86;100.00
12209;BME280;6167;43.080;25.634;2022-11-25T04:59:39;99467.22;;;7.88;100.00
12209;BME280;6167;43.080;25.634;2022-11-25T05:02:12;99467.56;;;7.78;100.00
12209;BME280;6167;43.080;25.634;2022-11-25T05:04:41;99476.88;;;7.63;100.00
12209;BME280;6167;43.080;25.634;2022-11-25T05:07:08;99470.59;;;7.67;100.00
12209;BME280;6167;43.080;25.634;2022-11-25T05:09:36;99470.63;;;7.90;100.00
12209;BME280;6167;43.080;25.634;2022-11-25T05:12:05;99458.75;;;7.79;100.00
12209;BME280;6167;43.080;25.634;2022-11-25T05:14:32;99475.56;;;7.75;100.00
12209;BME280;6167;43.080;25.634;2022-11-25T05:17:00;99487.09;;;7.71;100.00
12209;BME280;6167;43.080;25.634;2022-11-25T05:19:27;99466.22;;;7.66;100.00
12209;BME280;6167;43.080;25.634;2022-11-25T05:21:56;99471.00;;;7.80;100.00
12209;BME280;6167;43.080;25.634;2022-11-25T05:24:23;99470.25;;;7.76;100.00
12209;BME280;6167;43.080;25.634;2022-11-25T05:26:50;99495.66;;;7.77;100.00
12209;BME280;6167;43.080;25.634;2022-11-25T05:29:20;99505.44;;;7.74;100.00
12209;BME280;6167;43.080;25.634;2022-11-25T05:31:47;99511.03;;;7.65;100.00
12209;BME280;6167;43.080;25.634;2022-11-25T05:34:14;99507.53;;;7.64;100.00
12209;BME280;6167;43.080;25.634;2022-11-25T05:36:41;99516.81;;;7.74;100.00
12209;BME280;6167;43.080;25.634;2022-11-25T05:39:12;99491.22;;;7.79;100.00
12209;BME280;6167;43.080;25.634;2022-11-25T05:41:40;99515.97;;;7.99;100.00
12209;BME280;6167;43.080;25.634;2022-11-25T05:44:07;99520.88;;;7.84;100.00
12209;BME280;6167;43.080;25.634;2022-11-25T05:46:35;99522.88;;;7.76;100.00
12209;BME280;6167;43.080;25.634;2022-11-25T05:49:02;99516.47;;;7.58;100.00
12209;BME280;6167;43.080;25.634;2022-11-25T05:51:29;99511.78;;;7.68;100.00
12209;BME280;6167;43.080;25.634;2022-11-25T05:56:25;99505.28;;;7.52;100.00
12209;BME280;6167;43.080;25.634;2022-11-25T05:58:55;99519.13;;;7.58;100.00
12209;BME280;6167;43.080;25.634;2022-11-25T06:01:22;99542.31;;;7.72;100.00
12209;BME280;6167;43.080;25.634;2022-11-25T06:03:49;99504.34;;;7.54;100.00
12209;BME280;6167;43.080;25.634;2022-11-25T06:06:18;99548.72;;;7.90;100.00
12209;BME280;6167;43.080;25.634;2022-11-25T06:11:30;99580.31;;;7.90;100.00
12209;BME280;6167;43.080;25.634;2022-11-25T06:13:57;99562.16;;;7.82;100.00
12209;BME280;6167;43.080;25.634;2022-11-25T06:16:24;99542.69;;;7.62;100.00
12209;BME280;6167;43.080;25.634;2022-11-25T06:18:53;99539.69;;;7.72;100.00
12209;BME280;6167;43.080;25.634;2022-11-25T06:21:20;99544.28;;;7.92;100.00
12209;BME280;6167;43.080;25.634;2022-11-25T06:23:47;99550.97;;;7.76;100.00
12209;BME280;6167;43.080;25.634;2022-11-25T06:26:16;99568.50;;;7.77;100.00
12209;BME280;6167;43.080;25.634;2022-11-25T06:28:45;99589.66;;;8.25;100.00
12209;BME280;6167;43.080;25.634;2022-11-25T06:31:19;99546.41;;;8.07;100.00
12209;BME280;6167;43.080;25.634;2022-11-25T06:33:54;99585.56;;;8.16;100.00
12209;BME280;6167;43.080;25.634;2022-11-25T06:36:35;99572.78;;;8.31;100.00
12209;BME280;6167;43.080;25.634;2022-11-25T06:39:03;99574.66;;;8.27;100.00
12209;BME280;6167;43.080;25.634;2022-11-25T06:41:30;99575.19;;;8.12;100.00
12209;BME280;6167;43.080;25.634;2022-11-25T06:43:58;99598.16;;;8.08;100.00
12209;BME280;6167;43.080;25.634;2022-11-25T06:46:28;99574.97;;;7.93;100.00
12209;BME280;6167;43.080;25.634;2022-11-25T06:48:59;99590.34;;;8.05;100.00
12209;BME280;6167;43.080;25.634;2022-11-25T06:51:40;99600.34;;;8.20;100.00
12209;BME280;6167;43.080;25.634;2022-11-25T06:54:07;99602.13;;;8.46;100.00
12209;BME280;6167;43.080;25.634;2022-11-25T06:56:35;99611.59;;;8.52;100.00
12209;BME280;6167;43.080;25.634;2022-11-25T06:59:03;99581.81;;;8.23;100.00
12209;BME280;6167;43.080;25.634;2022-11-25T07:01:30;99588.47;;;8.09;100.00
12209;BME280;6167;43.080;25.634;2022-11-25T07:03:59;99614.38;;;8.21;100.00
12209;BME280;6167;43.080;25.634;2022-11-25T07:06:28;99619.56;;;8.24;100.00
12209;BME280;6167;43.080;25.634;2022-11-25T07:11:37;99625.22;;;8.63;100.00
12209;BME280;6167;43.080;25.634;2022-11-25T07:14:07;99619.91;;;8.88;100.00
12209;BME280;6167;43.080;25.634;2022-11-25T07:16:37;99612.97;;;9.09;100.00
12209;BME280;6167;43.080;25.634;2022-11-25T07:19:04;99619.63;;;9.62;100.00
12209;BME280;6167;43.080;25.634;2022-11-25T07:21:32;99622.78;;;10.14;100.00
12209;BME280;6167;43.080;25.634;2022-11-25T07:24:04;99621.31;;;10.49;100.00
12209;BME280;6167;43.080;25.634;2022-11-25T07:26:35;99621.34;;;10.68;100.00
12209;BME280;6167;43.080;25.634;2022-11-25T07:29:04;99623.09;;;10.28;100.00
12209;BME280;6167;43.080;25.634;2022-11-25T07:31:34;99631.75;;;10.10;100.00
12209;BME280;6167;43.080;25.634;2022-11-25T07:34:03;99626.19;;;10.58;100.00
12209;BME280;6167;43.080;25.634;2022-11-25T07:36:31;99627.69;;;11.03;100.00
12209;BME280;6167;43.080;25.634;2022-11-25T07:41:40;99632.41;;;11.53;100.00
12209;BME280;6167;43.080;25.634;2022-11-25T07:44:10;99639.69;;;11.66;100.00
12209;BME280;6167;43.080;25.634;2022-11-25T07:46:38;99645.16;;;11.63;100.00
12209;BME280;6167;43.080;25.634;2022-11-25T07:49:07;99633.78;;;11.05;100.00
12209;BME280;6167;43.080;25.634;2022-11-25T07:51:35;99636.72;;;10.99;100.00
12209;BME280;6167;43.080;25.634;2022-11-25T07:54:09;99649.72;;;11.03;100.00
12209;BME280;6167;43.080;25.634;2022-11-25T07:56:38;99653.53;;;11.54;100.00
12209;BME280;6167;43.080;25.634;2022-11-25T07:59:10;99652.84;;;11.68;100.00
12209;BME280;6167;43.080;25.634;2022-11-25T08:01:37;99667.16;;;10.68;100.00
12209;BME280;6167;43.080;25.634;2022-11-25T08:04:06;99674.44;;;10.43;100.00
12209;BME280;6167;43.080;25.634;2022-11-25T08:06:36;99655.69;;;9.85;100.00
12209;BME280;6167;43.080;25.634;2022-11-25T08:09:05;99683.38;;;9.53;100.00
12209;BME280;6167;43.080;25.634;2022-11-25T08:11:32;99695.81;;;9.50;100.00
12209;BME280;6167;43.080;25.634;2022-11-25T08:14:00;99673.75;;;9.29;100.00
12209;BME280;6167;43.080;25.634;2022-11-25T08:16:29;99690.16;;;9.59;100.00
12209;BME280;6167;43.080;25.634;2022-11-25T08:18:57;99688.66;;;9.53;100.00
12209;BME280;6167;43.080;25.634;2022-11-25T08:21:24;99709.88;;;9.27;100.00
12209;BME280;6167;43.080;25.634;2022-11-25T08:26:59;99688.72;;;9.52;100.00
12209;BME280;6167;43.080;25.634;2022-11-25T08:29:26;99689.28;;;9.37;100.00
12209;BME280;6167;43.080;25.634;2022-11-25T08:31:55;99707.84;;;8.87;100.00
12209;BME280;6167;43.080;25.634;2022-11-25T08:34:23;99715.34;;;8.98;100.00
12209;BME280;6167;43.080;25.634;2022-11-25T08:36:52;99715.41;;;8.96;100.00
12209;BME280;6167;43.080;25.634;2022-11-25T08:39:20;99706.31;;;8.80;100.00
12209;BME280;6167;43.080;25.634;2022-11-25T08:41:47;99709.06;;;9.25;100.00
12209;BME280;6167;43.080;25.634;2022-11-25T08:44:14;99715.38;;;9.44;100.00
12209;BME280;6167;43.080;25.634;2022-11-25T08:46:42;99716.25;;;9.21;100.00
12209;BME280;6167;43.080;25.634;2022-11-25T08:49:11;99726.81;;;8.96;100.00
12209;BME280;6167;43.080;25.634;2022-11-25T08:51:41;99713.91;;;9.14;100.00
12209;BME280;6167;43.080;25.634;2022-11-25T08:54:08;99719.63;;;9.25;100.00
12209;BME280;6167;43.080;25.634;2022-11-25T08:56:36;99730.66;;;9.13;100.00
12209;BME280;6167;43.080;25.634;2022-11-25T08:59:04;99719.66;;;9.00;100.00
12209;BME280;6167;43.080;25.634;2022-11-25T09:01:31;99729.41;;;8.98;100.00
12209;BME280;6167;43.080;25.634;2022-11-25T09:03:58;99730.13;;;9.26;100.00
12209;BME280;6167;43.080;25.634;2022-11-25T09:06:28;99734.38;;;9.30;100.00
12209;BME280;6167;43.080;25.634;2022-11-25T09:08:56;99731.56;;;9.35;100.00
12209;BME280;6167;43.080;25.634;2022-11-25T09:11:26;99713.81;;;8.92;100.00
12209;BME280;6167;43.080;25.634;2022-11-25T09:13:53;99734.41;;;9.06;100.00
12209;BME280;6167;43.080;25.634;2022-11-25T09:16:20;99737.81;;;9.09;100.00
12209;BME280;6167;43.080;25.634;2022-11-25T09:18:47;99735.38;;;9.03;100.00
12209;BME280;6167;43.080;25.634;2022-11-25T09:21:16;99724.66;;;9.08;100.00
12209;BME280;6167;43.080;25.634;2022-11-25T09:23:48;99723.06;;;9.04;100.00
12209;BME280;6167;43.080;25.634;2022-11-25T09:26:20;99727.25;;;9.09;100.00
12209;BME280;6167;43.080;25.634;2022-11-25T09:28:48;99728.63;;;9.43;100.00
12209;BME280;6167;43.080;25.634;2022-11-25T09:31:15;99728.63;;;9.43;100.00
12209;BME280;6167;43.080;25.634;2022-11-25T09:33:45;99717.75;;;9.52;100.00
12209;BME280;6167;43.080;25.634;2022-11-25T09:36:14;99731.38;;;9.16;100.00
12209;BME280;6167;43.080;25.634;2022-11-25T09:38:42;99731.56;;;9.12;100.00
12209;BME280;6167;43.080;25.634;2022-11-25T09:41:29;99721.88;;;9.12;100.00
12209;BME280;6167;43.080;25.634;2022-11-25T09:44:26;99717.78;;;9.04;100.00
12209;BME280;6167;43.080;25.634;2022-11-25T09:47:21;99725.91;;;8.98;100.00
12209;BME280;6167;43.080;25.634;2022-11-25T09:50:03;99712.53;;;9.27;100.00
12209;BME280;6167;43.080;25.634;2022-11-25T09:52:42;99717.44;;;9.59;100.00
12209;BME280;6167;43.080;25.634;2022-11-25T09:55:15;99723.41;;;9.64;100.00
12209;BME280;6167;43.080;25.634;2022-11-25T09:58:00;99723.78;;;9.32;100.00
12209;BME280;6167;43.080;25.634;2022-11-25T10:00:40;99716.81;;;9.29;100.00
12209;BME280;6167;43.080;25.634;2022-11-25T10:03:15;99714.34;;;9.25;100.00
12209;BME280;6167;43.080;25.634;2022-11-25T10:05:57;99722.22;;;9.26;100.00
12209;BME280;6167;43.080;25.634;2022-11-25T10:08:29;99713.31;;;9.29;100.00
12209;BME280;6167;43.080;25.634;2022-11-25T10:11:01;99726.84;;;9.20;100.00
12209;BME280;6167;43.080;25.634;2022-11-25T10:13:40;99712.91;;;9.16;100.00
12209;BME280;6167;43.080;25.634;2022-11-25T10:16:28;99702.75;;;9.52;100.00
12209;BME280;6167;43.080;25.634;2022-11-25T10:19:00;99736.19;;;9.75;100.00
12209;BME280;6167;43.080;25.634;2022-11-25T10:21:28;99711.06;;;9.87;100.00
12209;BME280;6167;43.080;25.634;2022-11-25T10:23:58;99727.72;;;10.11;100.00
12209;BME280;6167;43.080;25.634;2022-11-25T10:26:30;99726.56;;;10.40;100.00
12209;BME280;6167;43.080;25.634;2022-11-25T10:29:25;99709.22;;;10.75;100.00
12209;BME280;6167;43.080;25.634;2022-11-25T10:32:01;99701.75;;;11.03;100.00
12209;BME280;6167;43.080;25.634;2022-11-25T10:34:42;99675.28;;;10.84;100.00
12209;BME280;6167;43.080;25.634;2022-11-25T10:37:14;99721.22;;;11.41;100.00
12209;BME280;6167;43.080;25.634;2022-11-25T10:39:46;99703.88;;;11.15;100.00
12209;BME280;6167;43.080;25.634;2022-11-25T10:42:49;99719.34;;;11.04;100.00
12209;BME280;6167;43.080;25.634;2022-11-25T10:45:23;99732.03;;;10.97;100.00
12209;BME280;6167;43.080;25.634;2022-11-25T10:48:35;99734.97;;;10.49;100.00
12209;BME280;6167;43.080;25.634;2022-11-25T10:51:16;99731.13;;;10.14;100.00
12209;BME280;6167;43.080;25.634;2022-11-25T10:54:11;99733.00;;;10.11;100.00
12209;BME280;6167;43.080;25.634;2022-11-25T10:56:43;99726.81;;;10.12;100.00
12209;BME280;6167;43.080;25.634;2022-11-25T10:59:24;99734.78;;;10.10;100.00
12209;BME280;6167;43.080;25.634;2022-11-25T11:02:12;99733.56;;;9.97;100.00
12209;BME280;6167;43.080;25.634;2022-11-25T11:04:50;99737.91;;;9.98;100.00
12209;BME280;6167;43.080;25.634;2022-11-25T11:07:18;99728.94;;;10.02;100.00
12209;BME280;6167;43.080;25.634;2022-11-25T11:09:46;99740.75;;;9.93;100.00
12209;BME280;6167;43.080;25.634;2022-11-25T11:12:18;99730.78;;;9.78;100.00
12209;BME280;6167;43.080;25.634;2022-11-25T11:14:46;99716.47;;;9.84;100.00
12209;BME280;6167;43.080;25.634;2022-11-25T11:17:32;99729.38;;;9.91;100.00
12209;BME280;6167;43.080;25.634;2022-11-25T11:20:14;99718.88;;;9.68;100.00
12209;BME280;6167;43.080;25.634;2022-11-25T11:22:47;99725.44;;;9.80;100.00
12209;BME280;6167;43.080;25.634;2022-11-25T11:25:29;99730.44;;;9.87;100.00
12209;BME280;6167;43.080;25.634;2022-11-25T11:27:57;99722.75;;;9.81;100.00
12209;BME280;6167;43.080;25.634;2022-11-25T11:30:27;99722.22;;;10.17;100.00
12209;BME280;6167;43.080;25.634;2022-11-25T11:33:03;99719.56;;;10.17;100.00
12209;BME280;6167;43.080;25.634;2022-11-25T11:35:46;99704.00;;;10.09;100.00
12209;BME280;6167;43.080;25.634;2022-11-25T11:38:26;99727.97;;;10.48;100.00
12209;BME280;6167;43.080;25.634;2022-11-25T11:41:02;99718.56;;;10.41;100.00
12209;BME280;6167;43.080;25.634;2022-11-25T11:43:55;99720.47;;;10.80;100.00
12209;BME280;6167;43.080;25.634;2022-11-25T11:46:34;99694.72;;;11.22;100.00
12209;BME280;6167;43.080;25.634;2022-11-25T11:49:21;99711.38;;;11.63;100.00
12209;BME280;6167;43.080;25.634;2022-11-25T11:51:56;99716.66;;;11.63;99.62
12209;BME280;6167;43.080;25.634;2022-11-25T11:54:30;99694.94;;;11.74;97.82
12209;BME280;6167;43.080;25.634;2022-11-25T11:57:03;99714.84;;;11.64;95.53
12209;BME280;6167;43.080;25.634;2022-11-25T11:59:47;99712.91;;;11.49;94.50
12209;BME280;6167;43.080;25.634;2022-11-25T12:02:23;99719.63;;;11.76;95.70
12209;BME280;6167;43.080;25.634;2022-11-25T12:05:04;99728.13;;;11.83;96.16
12209;BME280;6167;43.080;25.634;2022-11-25T12:07:36;99712.22;;;12.01;93.41
12209;BME280;6167;43.080;25.634;2022-11-25T12:10:18;99722.72;;;12.39;88.93
12209;BME280;6167;43.080;25.634;2022-11-25T12:12:51;99731.91;;;12.49;87.56
12209;BME280;6167;43.080;25.634;2022-11-25T12:15:23;99729.94;;;12.18;91.84
12209;BME280;6167;43.080;25.634;2022-11-25T12:17:58;99727.75;;;11.53;99.57
12209;BME280;6167;43.080;25.634;2022-11-25T12:20:37;99718.78;;;11.36;100.00
12209;BME280;6167;43.080;25.634;2022-11-25T12:23:12;99722.66;;;11.48;100.00
12209;BME280;6167;43.080;25.634;2022-11-25T12:25:43;99709.25;;;11.32;100.00
12209;BME280;6167;43.080;25.634;2022-11-25T12:28:17;99712.44;;;11.41;100.00
12209;BME280;6167;43.080;25.634;2022-11-25T12:31:00;99723.31;;;11.53;100.00
12209;BME280;6167;43.080;25.634;2022-11-25T12:33:38;99718.00;;;11.34;100.00
12209;BME280;6167;43.080;25.634;2022-11-25T12:36:13;99725.50;;;11.05;100.00
12209;BME280;6167;43.080;25.634;2022-11-25T12:38:45;99724.59;;;10.65;100.00
12209;BME280;6167;43.080;25.634;2022-11-25T12:41:19;99721.63;;;10.73;100.00
12209;BME280;6167;43.080;25.634;2022-11-25T12:43:53;99719.91;;;10.72;100.00
12209;BME280;6167;43.080;25.634;2022-11-25T12:46:26;99731.09;;;10.58;100.00
12209;BME280;6167;43.080;25.634;2022-11-25T12:48:58;99728.03;;;10.87;100.00
12209;BME280;6167;43.080;25.634;2022-11-25T12:51:43;99718.50;;;11.03;100.00
12209;BME280;6167;43.080;25.634;2022-11-25T12:54:33;99710.59;;;10.63;100.00
12209;BME280;6167;43.080;25.634;2022-11-25T12:57:24;99745.31;;;10.76;100.00
12209;BME280;6167;43.080;25.634;2022-11-25T13:00:05;99730.28;;;10.56;100.00
12209;BME280;6167;43.080;25.634;2022-11-25T13:05:57;99755.31;;;10.47;100.00
12209;BME280;6167;43.080;25.634;2022-11-25T13:08:40;99730.88;;;10.20;100.00
12209;BME280;6167;43.080;25.634;2022-11-25T13:11:23;99748.34;;;10.24;100.00
12209;BME280;6167;43.080;25.634;2022-11-25T13:13:59;99754.06;;;10.36;100.00
12209;BME280;6167;43.080;25.634;2022-11-25T13:16:35;99736.03;;;10.23;100.00
12209;BME280;6167;43.080;25.634;2022-11-25T13:19:07;99748.81;;;10.12;100.00
12209;BME280;6167;43.080;25.634;2022-11-25T13:21:36;99767.69;;;10.25;100.00
12209;BME280;6167;43.080;25.634;2022-11-25T13:24:28;99759.50;;;10.09;100.00
12209;BME280;6167;43.080;25.634;2022-11-25T13:27:34;99768.63;;;10.00;100.00
12209;BME280;6167;43.080;25.634;2022-11-25T13:30:36;99755.41;;;10.00;100.00
12209;BME280;6167;43.080;25.634;2022-11-25T13:36:15;99774.53;;;9.85;100.00
12209;BME280;6167;43.080;25.634;2022-11-25T13:39:03;99777.53;;;9.76;100.00
12209;BME280;6167;43.080;25.634;2022-11-25T13:41:58;99783.25;;;9.87;100.00